메인 페이지
METAR-TAF:

METAR-TAF

공항 :

Kamloops, 브리티시컬럼비아, 캐나다

위도: 50-42N, 경도: 120-27W, 고도: 345m

현재 날씨관측

예보는 36분 전, 10:00시(UTC)에 발표되었습니다.
9kt
온도 -15°C
습도 78%
기압 1028 hPa
시정: 48.3km
고도 1800ft 상공 구름 보통
고도 9100ft 상공 흐림

METAR: CYKA 181000Z 10009KT 30SM SCT018 OVC091 M15/M18 A3035 RMK SC3AC5 SLP311

시각: 02:36 (10:36 UTC)

예보

예보는 3 시간 57분 전, 06:39시(UTC)에 발표되었습니다.
예보 대상 시간: 18일 07시부터 18일 19시까지 (UTC)
여러 방향의 바람 3kt
시정: 10km
고도 2000ft 상공 구름 보통
고도 8000ft 상공 구름 많음
일시적
18일 07시부터 18일 10시까지 (UTC)
시정: 10km
고도 2000ft 상공 구름 많음
고도 8000ft 상공 흐림
약한눈
18일 1000시부터 (UTC)
12kt
시정: 10km
고도 1200ft 상공 구름 보통
고도 3000ft 상공 흐림
약한눈
일시적
18일 10시부터 18일 18시까지 (UTC)
고도 1200ft 상공 구름 많음
고도 3000ft 상공 흐림
약한소낙눈
18일 1800시부터 (UTC)
8kt
시정: 10km
고도 2000ft 상공 구름 조금
고도 4000ft 상공 구름 많음
고도 8000ft 상공 흐림

TAF: CYKA 180639Z 1807/1819 VRB03KT P6SM SCT020 BKN080 TEMPO 1807/1810 P6SM -SN BKN020 OVC080 FM181000 10012KT P6SM -SN SCT012 OVC030 TEMPO 1810/1818 21/2SM -SHSN BKN012 OVC030 FM181800 10008KT P6SM FEW020 BKN040 OVC080 RMK NXT FCST BY 181300Z

4,000개 이상의 공항 관측 자료 및 예보 (METAR 및 TAF 보고).

지도상에서 검색 가능한 기상관측소가 노란 점과 빨간 점으로 표시되어 있습니다.

기상관측소 명을 보려면 표시 위로 마우스를 이동하세요.

날씨 관측과 예보를 보려면 클릭하세요.

지도 변경 : 확대하려면 엑스 표시가 있는 녹색 버튼, 축소하려면 빼기 표시가 있는 녹색 버튼, 다음 페이지의 지도를 보려면 녹색 화살표를 클릭하세요.


METAR-TAF: